Time;durP1;ratioP1;P1;durP2;ratioP2;P2;SDS_P1;SDS_P2;PMS_P1;PMS_P2;Temp;Humidity;BMP_temperature;BMP_pressure;BME280_temperature;BME280_humidity;BME280_pressure;Samples;Min_cycle;Max_cycle;Signal;HPM_P1;HPM_P2
2023/06/28 00:02:35;;;;;;;8.63;7.83;;;;;;;;;;6180488;28;20230;-62
2023/06/28 00:05:36;;;;;;;8.40;7.60;;;;;;;;;;6172849;28;20220;-61
2023/06/28 00:08:40;;;;;;;7.97;6.63;;;;;;;;;;6184311;28;20207;-61
2023/06/28 00:11:41;;;;;;;8.50;7.70;;;;;;;;;;6183811;28;20193;-62
2023/06/28 00:14:42;;;;;;;11.07;8.00;;;;;;;;;;6177370;28;20199;-61
2023/06/28 00:17:43;;;;;;;8.53;7.67;;;;;;;;;;6174338;28;20202;-61
2023/06/28 00:20:44;;;;;;;8.23;7.53;;;;;;;;;;6187959;28;20223;-62
2023/06/28 00:23:46;;;;;;;9.37;8.47;;;;;;;;;;6187726;28;20203;-62
2023/06/28 00:26:47;;;;;;;8.83;7.87;;;;;;;;;;6182944;28;20203;-61
2023/06/28 00:29:48;;;;;;;8.67;7.73;;;;;;;;;;6186499;28;20302;-61
2023/06/28 00:32:49;;;;;;;10.53;8.27;;;;;;;;;;6183156;28;20195;-62
2023/06/28 00:35:50;;;;;;;8.00;7.20;;;;;;;;;;6177510;28;20200;-62
2023/06/28 00:38:51;;;;;;;8.20;7.40;;;;;;;;;;6188740;28;20195;-62
2023/06/28 00:41:52;;;;;;;8.33;7.50;;;;;;;;;;6179530;28;20231;-62
2023/06/28 00:44:53;;;;;;;7.93;7.13;;;;;;;;;;6174200;28;20278;-62
2023/06/28 00:47:54;;;;;;;8.63;7.87;;;;;;;;;;6184769;28;20235;-61
2023/06/28 00:50:55;;;;;;;10.03;9.03;;;;;;;;;;6184873;28;20287;-61
2023/06/28 00:53:57;;;;;;;9.97;8.63;;;;;;;;;;6174932;28;20199;-62
2023/06/28 00:56:59;;;;;;;9.07;8.17;;;;;;;;;;6181834;28;20239;-62
2023/06/28 01:00:00;;;;;;;9.10;8.30;;;;;;;;;;6184969;28;20197;-61
2023/06/28 01:03:01;;;;;;;8.67;7.73;;;;;;;;;;6166835;28;20204;-61
2023/06/28 01:06:03;;;;;;;8.87;8.00;;;;;;;;;;6179414;28;20218;-61
2023/06/28 01:09:07;;;;;;;9.40;8.23;;;;;;;;;;6187962;28;20221;-61
2023/06/28 01:12:08;;;;;;;10.10;8.40;;;;;;;;;;6177931;28;20186;-61
2023/06/28 01:15:10;;;;;;;9.00;7.77;;;;;;;;;;6170210;28;20192;-61
2023/06/28 01:18:11;;;;;;;8.80;7.90;;;;;;;;;;6182708;28;20187;-62
2023/06/28 01:21:14;;;;;;;10.73;8.70;;;;;;;;;;6179054;28;20201;-62
2023/06/28 01:24:15;;;;;;;10.60;8.73;;;;;;;;;;6180352;28;20189;-62
2023/06/28 01:27:17;;;;;;;8.53;7.73;;;;;;;;;;6194509;28;20199;-62
2023/06/28 01:30:23;;;;;;;9.20;8.40;;;;;;;;;;6181908;28;20288;-61
2023/06/28 01:33:24;;;;;;;10.57;9.57;;;;;;;;;;6173982;28;20200;-62
2023/06/28 01:36:25;;;;;;;10.83;9.77;;;;;;;;;;6175788;28;20188;-61
2023/06/28 01:39:27;;;;;;;10.30;9.27;;;;;;;;;;6183186;28;20195;-61
2023/06/28 01:42:28;;;;;;;10.90;9.90;;;;;;;;;;6179685;28;20201;-62
2023/06/28 01:45:29;;;;;;;9.77;8.87;;;;;;;;;;6205791;28;20241;-62
2023/06/28 01:48:30;;;;;;;9.90;8.97;;;;;;;;;;6199020;28;20341;-61
2023/06/28 01:51:31;;;;;;;9.20;8.40;;;;;;;;;;6189074;28;20211;-62
2023/06/28 01:54:33;;;;;;;10.27;9.20;;;;;;;;;;6189717;28;20207;-61
2023/06/28 01:57:34;;;;;;;11.50;10.27;;;;;;;;;;6185092;28;20296;-62
2023/06/28 02:00:35;;;;;;;11.43;10.20;;;;;;;;;;6179933;28;20200;-61
2023/06/28 02:03:36;;;;;;;9.90;8.90;;;;;;;;;;6172656;28;20207;-62
2023/06/28 02:06:40;;;;;;;9.30;8.50;;;;;;;;;;6201754;28;20215;-62
2023/06/28 02:09:41;;;;;;;10.53;9.50;;;;;;;;;;6194172;28;20226;-61
2023/06/28 02:12:42;;;;;;;11.60;10.50;;;;;;;;;;6188269;28;20223;-62
2023/06/28 02:15:44;;;;;;;11.00;9.90;;;;;;;;;;6171246;28;20202;-62
2023/06/28 02:18:45;;;;;;;11.90;10.70;;;;;;;;;;6190958;28;20195;-62
2023/06/28 02:21:46;;;;;;;10.73;9.57;;;;;;;;;;6177723;28;20193;-61
2023/06/28 02:24:47;;;;;;;11.30;10.23;;;;;;;;;;6182201;28;20204;-61
2023/06/28 02:27:48;;;;;;;12.63;11.20;;;;;;;;;;6179907;28;20206;-62
2023/06/28 02:30:49;;;;;;;13.13;10.60;;;;;;;;;;6184483;28;20226;-61
2023/06/28 02:33:50;;;;;;;12.97;11.77;;;;;;;;;;6181161;28;20231;-62
2023/06/28 02:36:51;;;;;;;12.97;11.67;;;;;;;;;;6181382;28;20215;-61
2023/06/28 02:39:52;;;;;;;12.20;11.00;;;;;;;;;;6187316;28;20296;-62
2023/06/28 02:42:53;;;;;;;14.43;12.17;;;;;;;;;;6174209;28;20258;-61
2023/06/28 02:45:54;;;;;;;12.30;11.10;;;;;;;;;;6174284;28;20244;-61
2023/06/28 02:48:55;;;;;;;11.80;10.57;;;;;;;;;;6174300;28;20201;-61
2023/06/28 02:51:56;;;;;;;12.03;10.90;;;;;;;;;;6184763;28;20219;-61
2023/06/28 02:54:58;;;;;;;12.80;11.60;;;;;;;;;;6184349;28;20333;-61
2023/06/28 02:57:59;;;;;;;14.53;10.73;;;;;;;;;;6190862;28;20193;-61
2023/06/28 03:01:00;;;;;;;12.10;11.00;;;;;;;;;;6199830;28;20201;-60
2023/06/28 03:04:01;;;;;;;13.17;10.83;;;;;;;;;;6179588;28;20247;-61
2023/06/28 03:07:02;;;;;;;10.70;9.70;;;;;;;;;;6166429;28;20196;-61
2023/06/28 03:10:03;;;;;;;11.37;10.27;;;;;;;;;;6173591;28;20385;-60
2023/06/28 03:13:04;;;;;;;12.00;10.70;;;;;;;;;;6183465;28;20196;-60
2023/06/28 03:16:06;;;;;;;12.53;11.43;;;;;;;;;;6194211;28;20195;-60
2023/06/28 03:19:08;;;;;;;11.70;10.70;;;;;;;;;;6190004;28;20196;-60
2023/06/28 03:22:09;;;;;;;11.67;10.47;;;;;;;;;;6184109;28;20200;-60
2023/06/28 03:25:10;;;;;;;12.13;10.77;;;;;;;;;;6176488;28;20223;-61
2023/06/28 03:28:11;;;;;;;11.93;10.80;;;;;;;;;;6191973;28;20195;-60
2023/06/28 03:31:12;;;;;;;10.70;9.60;;;;;;;;;;6171799;28;20226;-60
2023/06/28 03:34:14;;;;;;;10.00;7.80;;;;;;;;;;6201226;28;20192;-60
2023/06/28 03:37:16;;;;;;;9.10;8.20;;;;;;;;;;6198021;28;20219;-61
2023/06/28 03:40:17;;;;;;;10.37;8.17;;;;;;;;;;6175748;28;20292;-61
2023/06/28 03:43:18;;;;;;;9.03;7.43;;;;;;;;;;6197031;28;20188;-60
2023/06/28 03:46:19;;;;;;;10.33;8.47;;;;;;;;;;6166826;28;20279;-60
2023/06/28 03:49:20;;;;;;;7.87;6.63;;;;;;;;;;6188795;28;20315;-60
2023/06/28 03:52:21;;;;;;;8.83;7.93;;;;;;;;;;6173941;28;20187;-60
2023/06/28 03:55:22;;;;;;;8.57;7.67;;;;;;;;;;6176524;28;20196;-60
2023/06/28 03:58:23;;;;;;;8.43;7.57;;;;;;;;;;6166597;28;20556;-60
2023/06/28 04:01:24;;;;;;;8.17;7.30;;;;;;;;;;6179091;28;20251;-60
2023/06/28 04:04:25;;;;;;;8.20;7.07;;;;;;;;;;6187179;28;20196;-60
2023/06/28 04:07:26;;;;;;;10.43;7.27;;;;;;;;;;6167206;28;20255;-60
2023/06/28 04:10:27;;;;;;;6.97;6.03;;;;;;;;;;6177279;28;20216;-61
2023/06/28 04:13:29;;;;;;;9.73;7.03;;;;;;;;;;6180352;28;20230;-60
2023/06/28 04:16:30;;;;;;;8.60;7.73;;;;;;;;;;6188169;28;20271;-62
2023/06/28 04:19:31;;;;;;;8.57;7.67;;;;;;;;;;6182715;28;20246;-60
2023/06/28 04:22:32;;;;;;;8.63;7.57;;;;;;;;;;6184489;28;20202;-61
2023/06/28 04:25:33;;;;;;;5.80;5.30;;;;;;;;;;6179509;28;20208;-61
2023/06/28 04:28:34;;;;;;;5.70;5.20;;;;;;;;;;6180300;28;20192;-60
2023/06/28 04:31:36;;;;;;;5.03;4.50;;;;;;;;;;6182313;28;20216;-61
2023/06/28 04:34:37;;;;;;;4.80;4.23;;;;;;;;;;6179447;28;20188;-61
2023/06/28 04:37:40;;;;;;;4.27;3.87;;;;;;;;;;6182755;28;20223;-61
2023/06/28 04:40:41;;;;;;;10.70;4.53;;;;;;;;;;6178596;28;20229;-60
2023/06/28 04:43:43;;;;;;;6.90;4.63;;;;;;;;;;6171306;28;20207;-60
2023/06/28 04:46:44;;;;;;;6.23;5.03;;;;;;;;;;6190682;28;20267;-60
2023/06/28 04:49:47;;;;;;;7.27;5.67;;;;;;;;;;6197543;28;20216;-61
2023/06/28 04:52:48;;;;;;;6.70;5.30;;;;;;;;;;6184470;28;20193;-60
2023/06/28 04:55:49;;;;;;;7.57;4.97;;;;;;;;;;6166227;28;20226;-61
2023/06/28 04:58:50;;;;;;;6.87;5.30;;;;;;;;;;6182028;28;20208;-61
2023/06/28 05:01:51;;;;;;;6.00;5.40;;;;;;;;;;6166878;28;20224;-61
2023/06/28 05:04:52;;;;;;;5.83;5.33;;;;;;;;;;6188830;28;20197;-61
2023/06/28 05:07:54;;;;;;;6.53;5.87;;;;;;;;;;6182249;28;20314;-60
2023/06/28 05:10:55;;;;;;;6.80;6.10;;;;;;;;;;6185283;28;20231;-61
2023/06/28 05:13:56;;;;;;;6.20;5.60;;;;;;;;;;6194984;28;20196;-61
2023/06/28 05:16:57;;;;;;;7.20;5.00;;;;;;;;;;6179519;28;20202;-61
2023/06/28 05:19:58;;;;;;;5.37;4.87;;;;;;;;;;6183964;28;20207;-60
2023/06/28 05:23:13;;;;;;;5.23;4.60;;;;;;;;;;6183807;28;20251;-61
2023/06/28 05:26:14;;;;;;;6.63;5.13;;;;;;;;;;6187836;28;20287;-61
2023/06/28 05:29:15;;;;;;;7.57;5.27;;;;;;;;;;6186494;28;20227;-60
2023/06/28 05:32:16;;;;;;;5.80;5.10;;;;;;;;;;6170388;28;20340;-61
2023/06/28 05:35:17;;;;;;;5.90;5.40;;;;;;;;;;6170038;28;20192;-62
2023/06/28 05:38:18;;;;;;;6.20;5.50;;;;;;;;;;6183816;28;20185;-62
2023/06/28 05:41:19;;;;;;;5.93;4.97;;;;;;;;;;6186111;28;20220;-62
2023/06/28 05:44:21;;;;;;;5.77;5.27;;;;;;;;;;6181062;28;20282;-62
2023/06/28 05:47:22;;;;;;;4.73;4.33;;;;;;;;;;6182723;28;20271;-62
2023/06/28 05:50:23;;;;;;;5.60;5.03;;;;;;;;;;6185212;28;20227;-62
2023/06/28 05:53:24;;;;;;;7.10;5.30;;;;;;;;;;6180783;28;20204;-61
2023/06/28 05:56:25;;;;;;;5.37;4.90;;;;;;;;;;6185047;28;20186;-61
2023/06/28 05:59:26;;;;;;;8.90;5.03;;;;;;;;;;6185239;28;20188;-60
2023/06/28 06:02:28;;;;;;;5.43;4.93;;;;;;;;;;6172110;28;20196;-61
2023/06/28 06:05:29;;;;;;;6.17;4.83;;;;;;;;;;6179760;28;20211;-61
2023/06/28 06:08:30;;;;;;;6.77;4.07;;;;;;;;;;6204233;28;20267;-61
2023/06/28 06:11:31;;;;;;;4.37;3.80;;;;;;;;;;6173866;28;20212;-60
2023/06/28 06:14:33;;;;;;;4.67;4.03;;;;;;;;;;6180802;28;20271;-61
2023/06/28 06:17:34;;;;;;;4.03;3.63;;;;;;;;;;6178950;28;20212;-61
2023/06/28 06:20:36;;;;;;;4.37;3.57;;;;;;;;;;6191806;28;20226;-61
2023/06/28 06:23:37;;;;;;;4.23;3.03;;;;;;;;;;6178429;28;20205;-61
2023/06/28 06:26:38;;;;;;;3.00;2.70;;;;;;;;;;6182149;28;20195;-61
2023/06/28 06:29:39;;;;;;;2.80;2.50;;;;;;;;;;6169762;28;20224;-61
2023/06/28 06:32:40;;;;;;;2.53;1.90;;;;;;;;;;6185749;28;20199;-61
2023/06/28 06:35:41;;;;;;;3.40;2.47;;;;;;;;;;6190154;28;20196;-61
2023/06/28 06:38:42;;;;;;;3.63;2.20;;;;;;;;;;6183648;28;20212;-62
2023/06/28 06:41:43;;;;;;;2.47;2.27;;;;;;;;;;6192247;28;20199;-61
2023/06/28 06:44:44;;;;;;;3.60;2.87;;;;;;;;;;6178834;28;20208;-61
2023/06/28 06:47:45;;;;;;;4.70;4.30;;;;;;;;;;6161327;28;20251;-61
2023/06/28 06:50:46;;;;;;;3.70;3.17;;;;;;;;;;6190065;28;20212;-61
2023/06/28 06:53:47;;;;;;;2.27;2.10;;;;;;;;;;6179576;28;20208;-61
2023/06/28 06:56:48;;;;;;;1.70;1.60;;;;;;;;;;6172436;28;20602;-61
2023/06/28 06:59:49;;;;;;;2.13;1.93;;;;;;;;;;6193810;28;20203;-61
2023/06/28 07:02:50;;;;;;;5.90;2.10;;;;;;;;;;6184999;28;20234;-61
2023/06/28 07:05:51;;;;;;;2.90;1.87;;;;;;;;;;6182304;28;20194;-62
2023/06/28 07:08:53;;;;;;;1.50;1.40;;;;;;;;;;6175579;28;20224;-61
2023/06/28 07:11:55;;;;;;;3.00;1.57;;;;;;;;;;6165453;28;20203;-61
2023/06/28 07:14:56;;;;;;;1.33;1.23;;;;;;;;;;6180913;28;20215;-61
2023/06/28 07:17:57;;;;;;;1.73;1.40;;;;;;;;;;6176888;28;20284;-61
2023/06/28 07:20:58;;;;;;;2.60;1.70;;;;;;;;;;6192378;28;20203;-61
2023/06/28 07:23:59;;;;;;;1.83;1.73;;;;;;;;;;6187162;28;20289;-61
2023/06/28 07:27:00;;;;;;;5.77;4.07;;;;;;;;;;6200041;28;20201;-61
2023/06/28 07:30:01;;;;;;;1.50;1.40;;;;;;;;;;6181586;28;20220;-61
2023/06/28 07:33:02;;;;;;;1.27;1.17;;;;;;;;;;6168423;28;20199;-61
2023/06/28 07:36:03;;;;;;;1.33;1.23;;;;;;;;;;6174821;28;20230;-61
2023/06/28 07:39:05;;;;;;;1.50;1.40;;;;;;;;;;6178527;28;20230;-61
2023/06/28 07:42:06;;;;;;;3.73;1.50;;;;;;;;;;6175618;28;20190;-61
2023/06/28 07:45:08;;;;;;;3.93;2.50;;;;;;;;;;6175510;28;20345;-61
2023/06/28 07:48:09;;;;;;;2.83;2.53;;;;;;;;;;6178175;28;20264;-61
2023/06/28 07:51:10;;;;;;;2.40;2.20;;;;;;;;;;6182315;28;20212;-61
2023/06/28 07:54:11;;;;;;;3.63;3.10;;;;;;;;;;6163926;28;20248;-61
2023/06/28 07:57:12;;;;;;;5.03;3.30;;;;;;;;;;6189144;28;20200;-61
2023/06/28 08:00:13;;;;;;;2.93;2.60;;;;;;;;;;6185317;28;20275;-61
2023/06/28 08:03:14;;;;;;;4.13;2.57;;;;;;;;;;6175925;28;20204;-62
2023/06/28 08:06:15;;;;;;;4.20;3.03;;;;;;;;;;6176702;28;20200;-62
2023/06/28 08:09:16;;;;;;;5.03;3.03;;;;;;;;;;6174190;28;20211;-61
2023/06/28 08:12:17;;;;;;;4.10;2.47;;;;;;;;;;6185288;28;20241;-62
2023/06/28 08:15:19;;;;;;;3.63;2.77;;;;;;;;;;6193056;28;20195;-62
2023/06/28 08:18:20;;;;;;;2.83;2.07;;;;;;;;;;6180911;28;20215;-62
2023/06/28 08:21:21;;;;;;;3.00;2.70;;;;;;;;;;6191177;28;20191;-61
2023/06/28 08:24:22;;;;;;;2.87;2.00;;;;;;;;;;6175618;28;20200;-62
2023/06/28 08:27:23;;;;;;;3.23;2.03;;;;;;;;;;6183581;28;20195;-61
2023/06/28 08:30:24;;;;;;;3.43;2.10;;;;;;;;;;6180469;28;20269;-62
2023/06/28 08:33:25;;;;;;;2.50;2.00;;;;;;;;;;6178960;28;20267;-62
2023/06/28 08:36:27;;;;;;;3.07;2.00;;;;;;;;;;6176861;28;20247;-61
2023/06/28 08:39:28;;;;;;;1.97;1.77;;;;;;;;;;6185478;28;20211;-62
2023/06/28 08:42:30;;;;;;;1.70;1.60;;;;;;;;;;6175184;28;20670;-61
2023/06/28 08:45:34;;;;;;;2.17;1.97;;;;;;;;;;6173303;28;20298;-61
2023/06/28 08:48:35;;;;;;;1.40;1.30;;;;;;;;;;6194222;28;20199;-61
2023/06/28 08:51:36;;;;;;;3.13;1.73;;;;;;;;;;6184187;28;20211;-61
2023/06/28 08:54:38;;;;;;;2.43;1.90;;;;;;;;;;6168188;28;20208;-64
2023/06/28 08:57:40;;;;;;;2.30;1.60;;;;;;;;;;6186221;28;20192;-61
2023/06/28 09:00:42;;;;;;;1.60;1.23;;;;;;;;;;6196946;28;20192;-61
2023/06/28 09:03:43;;;;;;;3.10;1.50;;;;;;;;;;6180227;28;20248;-64
2023/06/28 09:06:45;;;;;;;1.70;1.40;;;;;;;;;;6205514;28;20191;-63
2023/06/28 09:09:50;;;;;;;1.50;1.40;;;;;;;;;;6205250;28;20216;-61
2023/06/28 09:12:51;;;;;;;2.00;1.50;;;;;;;;;;6195984;28;20185;-62
2023/06/28 09:15:53;;;;;;;2.13;1.10;;;;;;;;;;6181309;28;20225;-61
2023/06/28 09:18:54;;;;;;;1.30;1.20;;;;;;;;;;6187671;28;20192;-61
2023/06/28 09:22:02;;;;;;;1.27;1.17;;;;;;;;;;6171602;28;20200;-64
2023/06/28 09:25:03;;;;;;;1.40;1.30;;;;;;;;;;6192812;28;20200;-64
2023/06/28 09:28:06;;;;;;;1.83;1.60;;;;;;;;;;6190569;28;20220;-62
2023/06/28 09:31:07;;;;;;;2.17;1.40;;;;;;;;;;6192767;28;20219;-62
2023/06/28 09:34:08;;;;;;;1.47;1.33;;;;;;;;;;6179624;28;20197;-61
2023/06/28 09:37:10;;;;;;;1.47;1.30;;;;;;;;;;6181816;28;20196;-63
2023/06/28 09:40:15;;;;;;;1.80;1.70;;;;;;;;;;6213750;28;20232;-63
2023/06/28 09:43:16;;;;;;;2.07;1.33;;;;;;;;;;6215432;28;20242;-64
2023/06/28 09:46:17;;;;;;;1.30;1.10;;;;;;;;;;6180488;28;20236;-62
2023/06/28 09:49:20;;;;;;;2.73;1.47;;;;;;;;;;6189483;28;20263;-62
2023/06/28 09:52:21;;;;;;;1.70;1.40;;;;;;;;;;6187063;28;20211;-63
2023/06/28 09:55:22;;;;;;;1.30;1.13;;;;;;;;;;6167783;28;20204;-62
2023/06/28 09:58:23;;;;;;;1.40;1.30;;;;;;;;;;6171305;28;20189;-63
2023/06/28 10:01:25;;;;;;;2.10;1.20;;;;;;;;;;6201158;28;20222;-62
2023/06/28 10:04:29;;;;;;;2.07;1.37;;;;;;;;;;6193555;28;20243;-63
2023/06/28 10:07:31;;;;;;;1.30;1.20;;;;;;;;;;6195597;28;20196;-62
2023/06/28 10:10:34;;;;;;;1.53;1.20;;;;;;;;;;6175749;28;20248;-62
2023/06/28 10:13:36;;;;;;;2.03;1.33;;;;;;;;;;6183322;28;20193;-63
2023/06/28 10:16:40;;;;;;;1.00;1.00;;;;;;;;;;6185110;28;20192;-63
2023/06/28 10:19:41;;;;;;;2.33;1.20;;;;;;;;;;6194808;28;20180;-64
2023/06/28 10:22:43;;;;;;;1.23;1.10;;;;;;;;;;6191976;28;20199;-63
2023/06/28 10:25:47;;;;;;;1.30;1.20;;;;;;;;;;6185500;28;20217;-63
2023/06/28 10:28:50;;;;;;;1.00;1.00;;;;;;;;;;6190863;28;20211;-63
2023/06/28 10:31:52;;;;;;;1.83;1.20;;;;;;;;;;6193500;28;20208;-65
2023/06/28 10:34:53;;;;;;;1.10;1.00;;;;;;;;;;6172345;28;20259;-64
2023/06/28 10:37:57;;;;;;;1.23;1.10;;;;;;;;;;6183234;28;20192;-65
2023/06/28 10:40:59;;;;;;;1.50;1.20;;;;;;;;;;6168648;28;20227;-65
2023/06/28 10:44:04;;;;;;;2.40;1.23;;;;;;;;;;6195449;28;20234;-64
2023/06/28 10:47:12;;;;;;;1.40;1.30;;;;;;;;;;6176106;28;20263;-65
2023/06/28 10:50:16;;;;;;;1.07;0.97;;;;;;;;;;6183723;28;20289;-64
2023/06/28 10:53:21;;;;;;;2.10;1.10;;;;;;;;;;6186146;28;20234;-64
2023/06/28 10:56:22;;;;;;;2.30;1.03;;;;;;;;;;6197681;28;20188;-64
2023/06/28 10:59:23;;;;;;;1.80;1.00;;;;;;;;;;6187980;28;20203;-64
2023/06/28 11:02:44;;;;;;;1.10;0.63;;;;;;;;;;6180111;28;20196;-64
2023/06/28 11:05:45;;;;;;;1.10;1.00;;;;;;;;;;6189447;28;20189;-64
2023/06/28 11:08:46;;;;;;;1.30;1.00;;;;;;;;;;6205500;28;20194;-64
2023/06/28 11:11:55;;;;;;;1.47;1.00;;;;;;;;;;6167650;28;20223;-64
2023/06/28 11:15:12;;;;;;;1.27;1.10;;;;;;;;;;6182787;28;20193;-65
2023/06/28 11:18:17;;;;;;;2.10;1.10;;;;;;;;;;6181796;28;20193;-64
2023/06/28 11:21:22;;;;;;;1.77;1.17;;;;;;;;;;6177114;28;20199;-64
2023/06/28 11:24:42;;;;;;;3.97;1.20;;;;;;;;;;6185313;28;20521;-64
2023/06/28 11:27:43;;;;;;;1.33;1.00;;;;;;;;;;6194293;28;20241;-64
2023/06/28 11:30:49;;;;;;;2.07;1.20;;;;;;;;;;6188472;28;20219;-65
2023/06/28 11:33:56;;;;;;;2.73;1.00;;;;;;;;;;6199808;28;20246;-64
2023/06/28 11:36:58;;;;;;;1.60;1.10;;;;;;;;;;6185405;28;20195;-64
2023/06/28 11:39:59;;;;;;;1.43;1.00;;;;;;;;;;6177239;28;20255;-64
2023/06/28 11:43:00;;;;;;;1.20;1.00;;;;;;;;;;6192267;28;20203;-64
2023/06/28 11:46:01;;;;;;;1.50;1.40;;;;;;;;;;6179777;28;20267;-64
2023/06/28 11:49:03;;;;;;;1.30;1.20;;;;;;;;;;6180591;28;20203;-63
2023/06/28 11:52:04;;;;;;;1.77;1.00;;;;;;;;;;6197861;28;20199;-63
2023/06/28 11:55:06;;;;;;;1.60;1.17;;;;;;;;;;6199154;28;20577;-63
2023/06/28 11:58:07;;;;;;;1.60;1.03;;;;;;;;;;6169767;28;20192;-63
2023/06/28 12:01:19;;;;;;;2.20;1.00;;;;;;;;;;6161728;28;20200;-62
2023/06/28 12:04:21;;;;;;;1.43;0.80;;;;;;;;;;6191764;28;20203;-62
2023/06/28 12:07:22;;;;;;;1.43;1.10;;;;;;;;;;6190482;28;20197;-63
2023/06/28 12:10:23;;;;;;;1.83;1.00;;;;;;;;;;6162402;28;20219;-63
2023/06/28 12:13:24;;;;;;;3.20;1.20;;;;;;;;;;6180744;28;20279;-63
2023/06/28 12:16:25;;;;;;;1.90;1.17;;;;;;;;;;6199720;28;20199;-63
2023/06/28 12:19:27;;;;;;;1.73;1.17;;;;;;;;;;6177276;28;20228;-62
2023/06/28 12:22:37;;;;;;;1.83;1.33;;;;;;;;;;6191530;28;20246;-66
2023/06/28 12:25:44;;;;;;;3.20;1.20;;;;;;;;;;6188417;28;20200;-64
2023/06/28 12:28:49;;;;;;;1.67;1.30;;;;;;;;;;6194390;28;20192;-65
2023/06/28 12:31:52;;;;;;;2.47;1.00;;;;;;;;;;6180217;28;20235;-65
2023/06/28 12:34:53;;;;;;;4.27;1.20;;;;;;;;;;6187367;28;20187;-65
2023/06/28 12:37:58;;;;;;;1.67;1.00;;;;;;;;;;6180153;28;20192;-66
2023/06/28 12:41:04;;;;;;;1.50;1.10;;;;;;;;;;6161436;28;20230;-66
2023/06/28 12:44:05;;;;;;;4.43;1.30;;;;;;;;;;6192274;28;20224;-65
2023/06/28 12:47:07;;;;;;;1.50;0.90;;;;;;;;;;6186883;28;20282;-65
2023/06/28 12:50:08;;;;;;;2.07;1.20;;;;;;;;;;6182672;28;20226;-65
2023/06/28 12:53:10;;;;;;;1.60;1.00;;;;;;;;;;6196540;28;20242;-65
2023/06/28 12:56:11;;;;;;;2.90;1.30;;;;;;;;;;6180113;28;20198;-66
2023/06/28 12:59:12;;;;;;;1.77;1.20;;;;;;;;;;6180132;28;20282;-66
2023/06/28 13:02:14;;;;;;;1.20;1.10;;;;;;;;;;6172342;28;20193;-65
2023/06/28 13:05:15;;;;;;;2.47;1.47;;;;;;;;;;6202291;28;20230;-65
2023/06/28 13:08:16;;;;;;;1.63;1.30;;;;;;;;;;6198828;28;20191;-65
2023/06/28 13:11:17;;;;;;;1.47;1.30;;;;;;;;;;6191503;28;20298;-65
2023/06/28 13:14:18;;;;;;;1.97;1.30;;;;;;;;;;6185224;28;20192;-64
2023/06/28 13:17:20;;;;;;;1.87;1.33;;;;;;;;;;6168424;28;20188;-65
2023/06/28 13:20:21;;;;;;;2.37;1.30;;;;;;;;;;6178745;28;20216;-65
2023/06/28 13:23:22;;;;;;;3.40;1.20;;;;;;;;;;6177285;28;20207;-65
2023/06/28 13:26:24;;;;;;;0.80;0.80;;;;;;;;;;6174540;28;20207;-65
2023/06/28 13:29:25;;;;;;;1.40;1.30;;;;;;;;;;6181007;28;20203;-65
2023/06/28 13:32:27;;;;;;;1.43;1.33;;;;;;;;;;6181675;28;20203;-65
2023/06/28 13:35:28;;;;;;;2.20;1.13;;;;;;;;;;6176216;28;21374;-65
2023/06/28 13:38:29;;;;;;;1.17;1.07;;;;;;;;;;6186527;28;20188;-65
2023/06/28 13:41:30;;;;;;;1.33;1.23;;;;;;;;;;6181433;28;20203;-66
2023/06/28 13:44:31;;;;;;;1.40;1.30;;;;;;;;;;6186405;28;20487;-67
2023/06/28 13:47:32;;;;;;;2.33;1.60;;;;;;;;;;6175120;28;20289;-68
2023/06/28 13:50:33;;;;;;;1.67;1.30;;;;;;;;;;6180286;28;20218;-66
2023/06/28 13:53:36;;;;;;;1.27;1.07;;;;;;;;;;6170580;28;20230;-65
2023/06/28 13:56:37;;;;;;;1.90;1.30;;;;;;;;;;6182681;28;20230;-69
2023/06/28 13:59:38;;;;;;;2.03;1.40;;;;;;;;;;6176946;28;20215;-67
2023/06/28 14:02:39;;;;;;;17.47;5.40;;;;;;;;;;6199245;28;20203;-68
2023/06/28 14:05:40;;;;;;;2.50;1.40;;;;;;;;;;6184850;28;20219;-69
2023/06/28 14:08:41;;;;;;;2.90;1.20;;;;;;;;;;6180194;28;20263;-69
2023/06/28 14:11:42;;;;;;;1.87;1.30;;;;;;;;;;6166449;28;20254;-68
2023/06/28 14:14:43;;;;;;;1.97;1.10;;;;;;;;;;6171313;28;20188;-68
2023/06/28 14:17:44;;;;;;;2.30;1.63;;;;;;;;;;6199453;28;20199;-70
2023/06/28 14:20:45;;;;;;;2.67;1.43;;;;;;;;;;6177213;28;20211;-69
2023/06/28 14:23:46;;;;;;;1.67;1.23;;;;;;;;;;6163811;28;20259;-71
2023/06/28 14:26:50;;;;;;;2.63;1.33;;;;;;;;;;6168143;28;20232;-69
2023/06/28 14:29:51;;;;;;;1.50;1.40;;;;;;;;;;6172072;28;20219;-70
2023/06/28 14:32:52;;;;;;;1.97;1.30;;;;;;;;;;6164904;28;20197;-67
2023/06/28 14:35:54;;;;;;;1.20;1.10;;;;;;;;;;6191040;28;20239;-69
2023/06/28 14:38:55;;;;;;;2.50;1.50;;;;;;;;;;6191451;28;20191;-71
2023/06/28 14:41:56;;;;;;;1.70;1.33;;;;;;;;;;6189198;28;20223;-69
2023/06/28 14:44:57;;;;;;;3.50;1.30;;;;;;;;;;6191630;28;20196;-71
2023/06/28 14:47:58;;;;;;;1.60;1.40;;;;;;;;;;6180479;28;20244;-68
2023/06/28 14:50:59;;;;;;;1.20;1.10;;;;;;;;;;6174318;28;20220;-68
2023/06/28 14:54:00;;;;;;;2.03;1.27;;;;;;;;;;6182067;28;20192;-69
2023/06/28 14:57:04;;;;;;;2.03;1.13;;;;;;;;;;6173953;28;20220;-66
2023/06/28 15:00:07;;;;;;;1.70;1.40;;;;;;;;;;6177533;28;20208;-68
2023/06/28 15:03:09;;;;;;;2.03;1.30;;;;;;;;;;6172439;28;20200;-67
2023/06/28 15:06:11;;;;;;;1.87;1.40;;;;;;;;;;6167568;28;20196;-67
2023/06/28 15:09:12;;;;;;;3.90;1.33;;;;;;;;;;6179397;28;20202;-68
2023/06/28 15:12:13;;;;;;;1.63;1.43;;;;;;;;;;6173223;28;20199;-68
2023/06/28 15:15:14;;;;;;;1.37;1.27;;;;;;;;;;6178600;28;20208;-67
2023/06/28 15:18:15;;;;;;;1.67;1.40;;;;;;;;;;6183963;28;20199;-68
2023/06/28 15:21:16;;;;;;;1.67;1.33;;;;;;;;;;6179618;28;20341;-68
2023/06/28 15:24:17;;;;;;;1.30;1.10;;;;;;;;;;6185840;28;20250;-68
2023/06/28 15:27:19;;;;;;;2.13;1.43;;;;;;;;;;6182438;28;20181;-69
2023/06/28 15:30:20;;;;;;;2.40;1.40;;;;;;;;;;6178380;28;20307;-68
2023/06/28 15:33:23;;;;;;;1.60;1.30;;;;;;;;;;6181445;28;20197;-68
2023/06/28 15:36:24;;;;;;;1.50;1.20;;;;;;;;;;6160896;28;20189;-68
2023/06/28 15:39:25;;;;;;;2.33;1.63;;;;;;;;;;6176694;28;20244;-64
2023/06/28 15:42:26;;;;;;;2.13;1.50;;;;;;;;;;6176690;28;20265;-66
2023/06/28 15:45:27;;;;;;;3.40;1.40;;;;;;;;;;6181611;28;20239;-66
2023/06/28 15:48:28;;;;;;;1.40;1.30;;;;;;;;;;6194723;28;20200;-67
2023/06/28 15:51:29;;;;;;;1.30;1.20;;;;;;;;;;6181690;28;20227;-67
2023/06/28 15:54:30;;;;;;;2.33;1.67;;;;;;;;;;6175082;28;20188;-66
2023/06/28 15:57:31;;;;;;;1.80;1.30;;;;;;;;;;6172542;28;20229;-66
2023/06/28 16:00:32;;;;;;;2.13;1.50;;;;;;;;;;6173684;28;20215;-66
2023/06/28 16:03:33;;;;;;;1.57;1.23;;;;;;;;;;6188067;28;20253;-66
2023/06/28 16:06:34;;;;;;;4.10;1.57;;;;;;;;;;6184790;28;20280;-68
2023/06/28 16:09:35;;;;;;;2.60;1.50;;;;;;;;;;6187209;28;20231;-66
2023/06/28 16:12:36;;;;;;;1.87;1.53;;;;;;;;;;6190230;28;20279;-64
2023/06/28 16:15:38;;;;;;;1.40;1.30;;;;;;;;;;6162084;28;20287;-65
2023/06/28 16:18:39;;;;;;;2.97;1.60;;;;;;;;;;6192961;28;20204;-66
2023/06/28 16:21:40;;;;;;;2.13;1.30;;;;;;;;;;6176977;28;20257;-67
2023/06/28 16:24:41;;;;;;;2.53;1.57;;;;;;;;;;6176099;28;20200;-66
2023/06/28 16:27:42;;;;;;;1.60;1.47;;;;;;;;;;6181309;28;20207;-68
2023/06/28 16:30:43;;;;;;;1.73;1.63;;;;;;;;;;6160234;28;20218;-67
2023/06/28 16:33:44;;;;;;;2.10;1.43;;;;;;;;;;6168482;28;20226;-67
2023/06/28 16:36:45;;;;;;;2.43;1.37;;;;;;;;;;6184197;28;20201;-67
2023/06/28 16:39:47;;;;;;;2.50;1.53;;;;;;;;;;6176717;28;20225;-66
2023/06/28 16:42:48;;;;;;;1.63;1.50;;;;;;;;;;6166339;28;20196;-67
2023/06/28 16:45:49;;;;;;;2.67;1.47;;;;;;;;;;6159980;28;20247;-66
2023/06/28 16:48:51;;;;;;;2.70;1.70;;;;;;;;;;6164896;28;20193;-65
2023/06/28 16:51:52;;;;;;;1.60;1.30;;;;;;;;;;6174842;28;20269;-66
2023/06/28 16:54:53;;;;;;;1.53;1.13;;;;;;;;;;6173580;28;20184;-66
2023/06/28 16:57:54;;;;;;;1.63;1.27;;;;;;;;;;6173423;28;20247;-65
2023/06/28 17:00:55;;;;;;;2.40;1.30;;;;;;;;;;6174713;28;20295;-65
2023/06/28 17:03:56;;;;;;;2.50;1.40;;;;;;;;;;6184890;28;20226;-65
2023/06/28 17:06:57;;;;;;;3.33;1.70;;;;;;;;;;6181741;28;20200;-66
2023/06/28 17:09:58;;;;;;;2.20;1.50;;;;;;;;;;6196936;28;20287;-66
2023/06/28 17:12:59;;;;;;;1.87;1.70;;;;;;;;;;6162936;28;20192;-66
2023/06/28 17:16:00;;;;;;;2.53;1.40;;;;;;;;;;6171462;28;20283;-66
2023/06/28 17:19:01;;;;;;;2.97;1.50;;;;;;;;;;6167220;28;20200;-65
2023/06/28 17:22:03;;;;;;;2.13;1.40;;;;;;;;;;6177524;28;20204;-66
2023/06/28 17:25:05;;;;;;;2.43;1.40;;;;;;;;;;6199804;28;20191;-66
2023/06/28 17:28:07;;;;;;;1.50;1.33;;;;;;;;;;6189733;28;20196;-66
2023/06/28 17:31:08;;;;;;;1.50;1.20;;;;;;;;;;6177477;28;20317;-66
2023/06/28 17:34:09;;;;;;;1.97;1.47;;;;;;;;;;6169884;28;20196;-66
2023/06/28 17:37:10;;;;;;;1.50;1.30;;;;;;;;;;6162754;28;20196;-65
2023/06/28 17:40:12;;;;;;;1.50;1.23;;;;;;;;;;6185962;28;20196;-65
2023/06/28 17:43:13;;;;;;;1.73;1.40;;;;;;;;;;6190557;28;20200;-64
2023/06/28 17:46:15;;;;;;;1.60;1.50;;;;;;;;;;6183897;28;20383;-64
2023/06/28 17:49:16;;;;;;;2.43;1.47;;;;;;;;;;6163756;28;20193;-64
2023/06/28 17:52:17;;;;;;;2.00;1.33;;;;;;;;;;6187522;28;20211;-66
2023/06/28 17:55:19;;;;;;;1.67;1.37;;;;;;;;;;6181929;28;20195;-64
2023/06/28 17:58:20;;;;;;;1.77;1.40;;;;;;;;;;6174831;28;20220;-64
2023/06/28 18:01:21;;;;;;;2.83;1.70;;;;;;;;;;6163313;28;20201;-65
2023/06/28 18:04:22;;;;;;;1.40;1.30;;;;;;;;;;6164327;28;20200;-64
2023/06/28 18:07:23;;;;;;;1.77;1.40;;;;;;;;;;6166891;28;20196;-64